createdAt,value
2022-10-11T00:00:46.653Z,96825.75
2022-10-11T00:03:14.636Z,96775.44
2022-10-11T00:05:41.988Z,96691.53
2022-10-11T00:08:08.924Z,96854.81
2022-10-11T00:10:35.528Z,96920.44
2022-10-11T00:17:01.817Z,96942.25
2022-10-11T00:19:28.461Z,96734.56
2022-10-11T00:21:55.100Z,96843.75
2022-10-11T00:24:21.707Z,96756.91
2022-10-11T00:26:48.295Z,96843.91
2022-10-11T00:29:15.010Z,96922.75
2022-10-11T00:31:41.646Z,96906.84
2022-10-11T00:34:08.512Z,96947.56
2022-10-11T00:36:35.163Z,96704.78
2022-10-11T00:39:01.808Z,96758.19
2022-10-11T00:41:28.455Z,96753.34
2022-10-11T00:44:22.561Z,96995.16
2022-10-11T00:46:56.002Z,96806.81
2022-10-11T00:49:41.387Z,96902.56
2022-10-11T00:52:37.998Z,96932.69
2022-10-11T00:55:09.451Z,96796.81
2022-10-11T00:57:38.786Z,96840.59
2022-10-11T01:00:10.541Z,96772.06
2022-10-11T01:02:37.803Z,96862.78
2022-10-11T01:05:28.083Z,96728.16
2022-10-11T01:07:52.471Z,96686.38
2022-10-11T01:10:19.226Z,96713.81
2022-10-11T01:13:30.763Z,96994.78
2022-10-11T01:16:17.470Z,96801.91
2022-10-11T01:19:22.796Z,96984.59
2022-10-11T01:22:13.573Z,96853.97
2022-10-11T01:25:01.916Z,97008.28
2022-10-11T01:27:43.240Z,96830.44
2022-10-11T01:30:20.342Z,97013.47
2022-10-11T01:32:56.133Z,97014.00
2022-10-11T01:35:32.603Z,96938.50
2022-10-11T01:38:07.241Z,97006.06
2022-10-11T01:40:37.223Z,96881.91
2022-10-11T01:43:03.892Z,96665.03
2022-10-11T01:45:30.840Z,96986.47
2022-10-11T01:48:08.436Z,96583.25
2022-10-11T01:50:45.258Z,97024.47
2022-10-11T01:53:30.541Z,97032.25
2022-10-11T01:56:18.947Z,97033.53
2022-10-11T01:59:16.523Z,97035.59
2022-10-11T02:02:02.605Z,97035.75
2022-10-11T02:04:31.410Z,97041.91
2022-10-11T02:07:00.974Z,97047.66
2022-10-11T02:09:53.068Z,96935.94
2022-10-11T02:16:02.768Z,96982.81
2022-10-11T02:18:32.835Z,96857.84
2022-10-11T02:21:00.888Z,96851.47
2022-10-11T02:23:30.313Z,96932.59
2022-10-11T02:25:57.312Z,97012.81
2022-10-11T02:28:28.235Z,96825.56
2022-10-11T02:30:55.187Z,96878.63
2022-10-11T02:33:24.167Z,96732.84
2022-10-11T02:36:01.724Z,96823.53
2022-10-11T02:38:32.335Z,96954.84
2022-10-11T02:41:02.856Z,96990.88
2022-10-11T02:43:57.657Z,97040.03
2022-10-11T02:46:24.300Z,96860.06
2022-10-11T02:48:51.026Z,96768.44
2022-10-11T02:51:17.788Z,96624.34
2022-10-11T02:53:44.431Z,96837.28
2022-10-11T02:56:11.177Z,96870.09
2022-10-11T02:58:37.798Z,96638.75
2022-10-11T03:01:04.799Z,96823.41
2022-10-11T03:03:31.422Z,96873.09
2022-10-11T03:05:59.855Z,96799.84
2022-10-11T03:08:26.510Z,96847.50
2022-10-11T03:10:53.139Z,96848.84
2022-10-11T03:13:19.808Z,96803.13
2022-10-11T03:16:02.898Z,96834.81
2022-10-11T03:18:30.508Z,96889.63
2022-10-11T03:20:57.188Z,96844.66
2022-10-11T03:23:23.780Z,96828.47
2022-10-11T03:25:52.178Z,96772.28
2022-10-11T03:28:19.379Z,97051.06
2022-10-11T03:30:49.980Z,97041.75
2022-10-11T03:33:17.259Z,96690.47
2022-10-11T03:35:44.967Z,96878.97
2022-10-11T03:38:16.128Z,96744.16
2022-10-11T03:40:43.039Z,96879.63
2022-10-11T03:43:09.930Z,97014.47
2022-10-11T03:45:36.649Z,96915.72
2022-10-11T03:48:03.692Z,96888.25
2022-10-11T03:50:31.266Z,97036.69
2022-10-11T03:52:57.883Z,97067.97
2022-10-11T03:55:24.514Z,96905.28
2022-10-11T03:57:51.196Z,97030.03
2022-10-11T04:00:17.868Z,96825.25
2022-10-11T04:02:44.557Z,96815.31
2022-10-11T04:05:12.706Z,96927.47
2022-10-11T04:07:39.848Z,96904.31
2022-10-11T04:10:07.283Z,96987.81
2022-10-11T04:12:34.247Z,96879.56
2022-10-11T04:15:00.859Z,96923.66
2022-10-11T04:17:27.458Z,96948.97
2022-10-11T04:19:54.103Z,96931.84
2022-10-11T04:22:20.701Z,96893.31
2022-10-11T04:24:47.276Z,96886.50
2022-10-11T04:27:13.930Z,96983.97
2022-10-11T04:29:40.516Z,97021.75
2022-10-11T04:32:07.222Z,96800.25
2022-10-11T04:34:33.889Z,96947.22
2022-10-11T04:37:00.572Z,96895.50
2022-10-11T04:39:27.170Z,96769.53
2022-10-11T04:41:53.784Z,96888.34
2022-10-11T04:44:20.382Z,96760.41
2022-10-11T04:46:46.992Z,96884.66
2022-10-11T04:49:13.737Z,96892.16
2022-10-11T04:51:40.367Z,97028.22
2022-10-11T04:54:07.029Z,96909.88
2022-10-11T04:56:33.786Z,96658.63
2022-10-11T04:59:00.424Z,97032.69
2022-10-11T05:01:27.078Z,96989.22
2022-10-11T05:03:53.706Z,96874.84
2022-10-11T05:06:20.411Z,96817.44
2022-10-11T05:08:47.090Z,96758.81
2022-10-11T05:11:16.028Z,96825.03
2022-10-11T05:13:43.090Z,96790.47
2022-10-11T05:16:11.212Z,96949.19
2022-10-11T05:18:38.439Z,96901.69
2022-10-11T05:21:07.313Z,97024.59
2022-10-11T05:23:34.377Z,96691.84
2022-10-11T05:26:01.511Z,97117.38
2022-10-11T05:28:28.569Z,96720.09
2022-10-11T05:30:55.239Z,96909.88
2022-10-11T05:33:22.055Z,97015.88
2022-10-11T05:35:48.706Z,97028.41
2022-10-11T05:38:16.592Z,97018.88
2022-10-11T05:40:43.314Z,96875.44
2022-10-11T05:43:09.920Z,96983.47
2022-10-11T05:45:40.161Z,96914.00
2022-10-11T05:48:06.851Z,96965.03
2022-10-11T05:50:33.501Z,96937.94
2022-10-11T05:53:00.097Z,97052.69
2022-10-11T05:55:26.812Z,97092.09
2022-10-11T05:57:56.822Z,97027.59
2022-10-11T06:00:23.911Z,96836.22
2022-10-11T06:02:50.579Z,96900.75
2022-10-11T06:05:17.338Z,97119.22
2022-10-11T06:07:44.742Z,97101.75
2022-10-11T06:10:11.625Z,97131.38
2022-10-11T06:12:38.808Z,97079.38
2022-10-11T06:15:06.416Z,97067.28
2022-10-11T06:17:33.129Z,97032.81
2022-10-11T06:19:59.746Z,97080.25
2022-10-11T06:22:26.810Z,97097.81
2022-10-11T06:24:53.450Z,97062.66
2022-10-11T06:27:20.178Z,97107.63
2022-10-11T06:29:46.771Z,97074.91
2022-10-11T06:32:13.438Z,97072.28
2022-10-11T06:34:40.026Z,96998.81
2022-10-11T06:37:06.771Z,96968.69
2022-10-11T06:39:33.505Z,97101.41
2022-10-11T06:42:00.126Z,97123.09
2022-10-11T06:44:26.908Z,96982.56
2022-10-11T06:46:53.535Z,97122.66
2022-10-11T06:49:23.239Z,97032.56
2022-10-11T06:51:50.517Z,96941.91
2022-10-11T06:54:17.148Z,96925.56
2022-10-11T06:56:45.667Z,97022.19
2022-10-11T06:59:13.463Z,97136.94
2022-10-11T07:01:40.178Z,97050.72
2022-10-11T07:04:07.278Z,97050.59
2022-10-11T07:06:36.525Z,97213.69
2022-10-11T07:09:03.411Z,97131.53
2022-10-11T07:11:30.064Z,97148.31
2022-10-11T07:13:58.160Z,97132.78
2022-10-11T07:16:24.867Z,97219.94
2022-10-11T07:19:00.240Z,97160.50
2022-10-11T07:21:27.904Z,97104.16
2022-10-11T07:23:54.479Z,97125.50
2022-10-11T07:26:21.100Z,97099.59
2022-10-11T07:28:47.897Z,97221.94
2022-10-11T07:31:16.432Z,97077.41
2022-10-11T07:33:43.116Z,97062.13
2022-10-11T07:36:10.284Z,96972.72
2022-10-11T07:38:40.027Z,97059.91
2022-10-11T07:41:06.849Z,96957.94
2022-10-11T07:43:33.524Z,97018.66
2022-10-11T07:46:04.564Z,96855.03
2022-10-11T07:48:32.199Z,97170.63
2022-10-11T07:51:05.405Z,97063.16
2022-10-11T07:53:32.166Z,96984.53
2022-10-11T07:56:01.117Z,97112.19
2022-10-11T07:58:27.830Z,97213.22
2022-10-11T08:00:54.697Z,97250.66
2022-10-11T08:03:21.342Z,97257.31
2022-10-11T08:05:48.474Z,97161.81
2022-10-11T08:08:15.308Z,97271.25
2022-10-11T08:10:42.094Z,97180.25
2022-10-11T08:13:08.890Z,96899.72
2022-10-11T08:15:35.706Z,97016.31
2022-10-11T08:18:02.446Z,96929.13
2022-10-11T08:20:31.240Z,96955.66
2022-10-11T08:22:57.959Z,97006.41
2022-10-11T08:25:24.791Z,97143.69
2022-10-11T08:27:51.739Z,97212.28
2022-10-11T08:30:19.006Z,97128.47
2022-10-11T08:33:13.365Z,96955.25
2022-10-11T08:35:42.454Z,97275.84
2022-10-11T08:38:09.258Z,96852.19
2022-10-11T08:40:36.933Z,97142.03
2022-10-11T08:43:05.413Z,97091.78
2022-10-11T08:45:44.425Z,97018.31
2022-10-11T08:48:22.226Z,96976.25
2022-10-11T08:51:10.513Z,96788.19
2022-10-11T08:53:45.886Z,96902.13
2022-10-11T08:56:13.494Z,96901.94
2022-10-11T08:58:52.917Z,97002.97
2022-10-11T09:01:27.092Z,96896.72
2022-10-11T09:03:54.824Z,97254.44
2022-10-11T09:06:24.558Z,97290.59
2022-10-11T09:09:19.107Z,97288.13
2022-10-11T09:12:05.817Z,97123.06
2022-10-11T09:14:44.573Z,97290.91
2022-10-11T09:17:20.248Z,97179.34
2022-10-11T09:20:06.029Z,97115.22
2022-10-11T09:22:57.866Z,97288.75
2022-10-11T09:25:35.483Z,96997.50
2022-10-11T09:28:11.996Z,97288.94
2022-10-11T09:30:50.218Z,96861.44
2022-10-11T09:33:41.346Z,96883.28
2022-10-11T09:36:34.072Z,96831.78
2022-10-11T09:43:37.385Z,96772.44
2022-10-11T09:46:45.174Z,96937.91
2022-10-11T09:49:14.588Z,96885.22
2022-10-11T09:51:47.337Z,97190.78
2022-10-11T09:54:53.155Z,97303.81
2022-10-11T09:57:37.272Z,97105.00
2022-10-11T10:00:20.064Z,97296.28
2022-10-11T10:02:50.314Z,97304.28
2022-10-11T10:05:47.207Z,97242.91
2022-10-11T10:08:24.092Z,97072.41
2022-10-11T10:10:59.384Z,97299.03
2022-10-11T10:13:51.213Z,97300.50
2022-10-11T10:16:31.131Z,97231.16
2022-10-11T10:19:15.850Z,97123.09
2022-10-11T10:21:49.804Z,97277.34
2022-10-11T10:24:24.645Z,97146.28
2022-10-11T10:27:17.604Z,97311.72
2022-10-11T10:30:01.777Z,97136.50
2022-10-11T10:32:34.477Z,97278.25
2022-10-11T10:35:31.642Z,97319.88
2022-10-11T10:38:07.162Z,97276.81
2022-10-11T10:40:39.684Z,97321.22
2022-10-11T10:43:06.393Z,97177.28
2022-10-11T10:45:53.170Z,97296.28
2022-10-11T10:48:37.754Z,97112.66
2022-10-11T10:51:33.675Z,97320.63
2022-10-11T10:54:18.146Z,97318.34
2022-10-11T10:56:51.292Z,97149.03
2022-10-11T10:59:27.040Z,97084.25
2022-10-11T11:02:06.733Z,97314.09
2022-10-11T11:04:44.874Z,97118.03
2022-10-11T11:07:21.492Z,97193.56
2022-10-11T11:10:10.985Z,97161.41
2022-10-11T11:12:37.544Z,97260.38
2022-10-11T11:15:15.309Z,97193.44
2022-10-11T11:17:50.993Z,97146.56
2022-10-11T11:20:24.855Z,97265.88
2022-10-11T11:23:17.979Z,97164.19
2022-10-11T11:26:03.235Z,97171.72
2022-10-11T11:28:46.402Z,97028.38
2022-10-11T11:31:19.779Z,97184.09
2022-10-11T11:34:18.993Z,97300.53
2022-10-11T11:36:58.699Z,97126.84
2022-10-11T11:39:44.041Z,97148.72
2022-10-11T11:42:15.501Z,97324.34
2022-10-11T11:44:47.169Z,96996.50
2022-10-11T11:47:19.138Z,97107.63
2022-10-11T11:49:51.204Z,96908.34
2022-10-11T11:52:25.307Z,97005.47
2022-10-11T11:55:04.190Z,97141.84
2022-10-11T11:57:56.169Z,97327.81
2022-10-11T12:00:25.199Z,97326.31
2022-10-11T12:02:53.361Z,97335.31
2022-10-11T12:05:22.697Z,97134.91
2022-10-11T12:07:50.802Z,97334.19
2022-10-11T12:10:24.594Z,97244.13
2022-10-11T12:13:21.971Z,97204.09
2022-10-11T12:15:59.197Z,97027.59
2022-10-11T12:18:26.210Z,97048.19
2022-10-11T12:21:25.139Z,97331.06
2022-10-11T12:23:53.511Z,97233.00
2022-10-11T12:26:33.209Z,97163.47
2022-10-11T12:29:18.625Z,97337.88
2022-10-11T12:31:46.472Z,97342.59
2022-10-11T12:34:34.649Z,97142.13
2022-10-11T12:37:22.170Z,97285.53
2022-10-11T12:39:55.806Z,97211.56
2022-10-11T12:42:33.347Z,97341.94
2022-10-11T12:45:23.490Z,97256.59
2022-10-11T12:47:56.079Z,97184.38
2022-10-11T12:50:51.461Z,97345.53
2022-10-11T12:53:39.912Z,97221.41
2022-10-11T12:56:12.319Z,97199.19
2022-10-11T12:58:41.542Z,97198.88
2022-10-11T13:01:17.686Z,97224.41
2022-10-11T13:03:53.239Z,97158.56
2022-10-11T13:06:27.901Z,97065.31
2022-10-11T13:08:57.620Z,97013.91
2022-10-11T13:11:28.161Z,97185.22
2022-10-11T13:13:58.472Z,97258.03
2022-10-11T13:16:29.673Z,97048.47
2022-10-11T13:18:59.733Z,97110.41
2022-10-11T13:21:39.414Z,97024.53
2022-10-11T13:24:13.944Z,97167.34
2022-10-11T13:26:40.619Z,97164.47
2022-10-11T13:29:17.613Z,97331.56
2022-10-11T13:31:47.405Z,97127.56
2022-10-11T13:34:13.993Z,97125.72
2022-10-11T13:36:40.591Z,97002.56
2022-10-11T13:39:07.620Z,97027.94
2022-10-11T13:41:35.376Z,97217.81
2022-10-11T13:44:02.057Z,97306.59
2022-10-11T13:46:29.461Z,97126.38
2022-10-11T13:49:00.469Z,97253.34
2022-10-11T13:51:32.269Z,97277.72
2022-10-11T13:54:03.523Z,97169.53
2022-10-11T13:56:51.839Z,97156.25
2022-10-11T13:59:25.095Z,97184.19
2022-10-11T14:01:56.787Z,97103.69
2022-10-11T14:04:28.689Z,97293.91
2022-10-11T14:06:58.408Z,97322.16
2022-10-11T14:09:33.913Z,97093.88
2022-10-11T14:12:31.339Z,97317.75
2022-10-11T14:14:59.691Z,97148.94
2022-10-11T14:17:34.233Z,97248.22
2022-10-11T14:20:12.013Z,97078.28
2022-10-11T14:22:38.865Z,97011.06
2022-10-11T14:25:05.804Z,97321.22
2022-10-11T14:27:32.415Z,97302.69
2022-10-11T14:30:25.094Z,97008.25
2022-10-11T14:32:46.267Z,97274.16
2022-10-11T14:35:23.435Z,97217.25
2022-10-11T14:37:50.134Z,97222.28
2022-10-11T14:40:19.339Z,97227.94
2022-10-11T14:42:45.985Z,97109.22
2022-10-11T14:45:12.850Z,96942.75
2022-10-11T14:47:42.939Z,97275.88
2022-10-11T14:50:28.069Z,97338.19
2022-10-11T14:52:54.824Z,97271.91
2022-10-11T14:55:21.608Z,97246.72
2022-10-11T14:57:48.553Z,97261.47
2022-10-11T15:00:23.121Z,97242.78
2022-10-11T15:02:52.937Z,97325.31
2022-10-11T15:05:20.503Z,97247.03
2022-10-11T15:07:47.498Z,97297.03
2022-10-11T15:10:40.526Z,97244.56
2022-10-11T15:13:07.346Z,97246.00
2022-10-11T15:15:36.560Z,97247.63
2022-10-11T15:18:04.778Z,97342.59
2022-10-11T15:20:32.522Z,97322.50
2022-10-11T15:22:59.442Z,97249.63
2022-10-11T15:25:26.534Z,97305.09
2022-10-11T15:27:53.186Z,97084.00
2022-10-11T15:30:29.945Z,97236.03
2022-10-11T15:32:56.528Z,97290.59
2022-10-11T15:35:26.721Z,97268.78
2022-10-11T15:37:54.600Z,97239.78
2022-10-11T15:40:23.992Z,97285.66
2022-10-11T15:42:50.852Z,97096.00
2022-10-11T15:45:18.076Z,97298.16
2022-10-11T15:47:44.970Z,97283.66
2022-10-11T15:50:34.439Z,97247.72
2022-10-11T15:53:05.946Z,97338.50
2022-10-11T15:55:33.140Z,97297.59
2022-10-11T15:58:00.007Z,97275.34
2022-10-11T16:00:26.715Z,97265.53
2022-10-11T16:02:53.397Z,97265.31
2022-10-11T16:05:26.801Z,97262.63
2022-10-11T16:07:53.516Z,97237.34
2022-10-11T16:10:20.192Z,97289.19
2022-10-11T16:12:46.775Z,97258.53
2022-10-11T16:15:13.702Z,97197.16
2022-10-11T16:17:40.454Z,97137.38
2022-10-11T16:20:07.494Z,97229.94
2022-10-11T16:22:34.659Z,97299.41
2022-10-11T16:25:02.336Z,97101.38
2022-10-11T16:27:29.784Z,97395.47
2022-10-11T16:29:56.438Z,97196.22
2022-10-11T16:32:24.305Z,97163.94
2022-10-11T16:34:51.037Z,97136.44
2022-10-11T16:37:17.633Z,97245.13
2022-10-11T16:39:44.325Z,97188.13
2022-10-11T16:42:11.026Z,97136.34
2022-10-11T16:44:39.313Z,97272.34
2022-10-11T16:47:06.172Z,97327.25
2022-10-11T16:49:33.180Z,97265.44
2022-10-11T16:52:00.244Z,97225.66
2022-10-11T16:54:30.546Z,97295.53
2022-10-11T16:56:57.934Z,97070.59
2022-10-11T16:59:24.555Z,97341.69
2022-10-11T17:01:51.165Z,97232.66
2022-10-11T17:04:17.804Z,97195.44
2022-10-11T17:06:44.992Z,97220.31
2022-10-11T17:09:11.710Z,97361.75
2022-10-11T17:11:38.497Z,97282.88
2022-10-11T17:14:06.038Z,97236.44
2022-10-11T17:16:32.799Z,97299.31
2022-10-11T17:18:59.402Z,97170.66
2022-10-11T17:21:26.053Z,96950.16
2022-10-11T17:23:52.840Z,97256.03
2022-10-11T17:26:21.911Z,97297.94
2022-10-11T17:28:48.871Z,97255.59
2022-10-11T17:31:15.610Z,97328.22
2022-10-11T17:33:42.308Z,97330.81
2022-10-11T17:36:22.907Z,97217.50
2022-10-11T17:38:50.163Z,97220.53
2022-10-11T17:41:17.993Z,97176.13
2022-10-11T17:43:44.674Z,97371.84
2022-10-11T17:46:12.474Z,97371.28
2022-10-11T17:48:39.436Z,97224.06
2022-10-11T17:51:10.280Z,97445.75
2022-10-11T17:53:37.039Z,97214.44
2022-10-11T17:56:06.827Z,97191.63
2022-10-11T17:58:33.608Z,97368.13
2022-10-11T18:01:05.841Z,96995.63
2022-10-11T18:03:33.062Z,97293.69
2022-10-11T18:06:03.058Z,97209.72
2022-10-11T18:08:29.766Z,97210.41
2022-10-11T18:10:56.444Z,97235.88
2022-10-11T18:13:23.302Z,97147.25
2022-10-11T18:15:53.448Z,97223.44
2022-10-11T18:18:27.422Z,97155.19
2022-10-11T18:20:55.021Z,97168.34
2022-10-11T18:23:25.802Z,97244.31
2022-10-11T18:25:52.558Z,97276.38
2022-10-11T18:28:19.431Z,97032.63
2022-10-11T18:30:47.222Z,97145.28
2022-10-11T18:33:14.344Z,97274.22
2022-10-11T18:35:41.101Z,97155.94
2022-10-11T18:38:07.755Z,97177.03
2022-10-11T18:40:43.398Z,97184.88
2022-10-11T18:43:12.922Z,97228.19
2022-10-11T18:45:39.549Z,97104.97
2022-10-11T18:48:08.339Z,97197.00
2022-10-11T18:50:35.571Z,97248.88
2022-10-11T18:53:02.381Z,97192.88
2022-10-11T18:55:29.098Z,97296.38
2022-10-11T18:57:55.959Z,97077.69
2022-10-11T19:00:40.316Z,97092.69
2022-10-11T19:03:08.071Z,97105.91
2022-10-11T19:05:34.727Z,97174.22
2022-10-11T19:08:01.522Z,97304.13
2022-10-11T19:10:28.562Z,97247.31
2022-10-11T19:12:55.222Z,97059.97
2022-10-11T19:15:26.457Z,97176.03
2022-10-11T19:17:55.292Z,97243.16
2022-10-11T19:20:22.050Z,97120.34
2022-10-11T19:22:48.691Z,97297.63
2022-10-11T19:25:15.596Z,97202.41
2022-10-11T19:27:42.351Z,97441.97
2022-10-11T19:30:09.337Z,97347.16
2022-10-11T19:32:36.496Z,97110.84
2022-10-11T19:35:03.140Z,97321.88
2022-10-11T19:37:30.043Z,97168.41
2022-10-11T19:39:56.953Z,97244.66
2022-10-11T19:42:23.605Z,97207.19
2022-10-11T19:44:50.267Z,97163.19
2022-10-11T19:47:16.986Z,97067.88
2022-10-11T19:49:43.623Z,97224.19
2022-10-11T19:52:10.241Z,97111.00
2022-10-11T19:54:38.783Z,97195.50
2022-10-11T19:57:05.491Z,97187.94
2022-10-11T19:59:32.175Z,97318.31
2022-10-11T20:01:58.934Z,97169.75
2022-10-11T20:04:52.175Z,97335.34
2022-10-11T20:07:12.320Z,97316.88
2022-10-11T20:09:39.069Z,97181.78
2022-10-11T20:12:05.901Z,97105.19
2022-10-11T20:14:32.539Z,97239.75
2022-10-11T20:16:59.213Z,97207.63
2022-10-11T20:19:31.299Z,97263.47
2022-10-11T20:21:59.071Z,97401.22
2022-10-11T20:24:27.590Z,97078.94
2022-10-11T20:26:54.781Z,97250.47
2022-10-11T20:29:21.435Z,97311.66
2022-10-11T20:31:48.076Z,97380.44
2022-10-11T20:34:14.786Z,97230.13
2022-10-11T20:36:43.761Z,97211.63
2022-10-11T20:39:13.610Z,97119.31
2022-10-11T20:41:40.326Z,97226.53
2022-10-11T20:44:07.243Z,97400.41
2022-10-11T20:46:35.109Z,97278.97
2022-10-11T20:49:03.516Z,97254.19
2022-10-11T20:51:31.135Z,97097.28
2022-10-11T20:53:58.594Z,97372.00
2022-10-11T20:56:25.325Z,97271.28
2022-10-11T20:58:55.518Z,97255.09
2022-10-11T21:01:24.235Z,97003.28
2022-10-11T21:03:50.931Z,97291.13
2022-10-11T21:06:17.659Z,97135.44
2022-10-11T21:08:44.340Z,97158.97
2022-10-11T21:11:11.113Z,97108.00
2022-10-11T21:13:37.772Z,96992.50
2022-10-11T21:16:10.874Z,97122.09
2022-10-11T21:18:37.708Z,97231.44
2022-10-11T21:21:10.927Z,97166.50
2022-10-11T21:23:37.647Z,97150.63
2022-10-11T21:26:05.914Z,97349.56
2022-10-11T21:28:33.088Z,97165.69
2022-10-11T21:31:18.551Z,97283.09
2022-10-11T21:33:45.013Z,97450.34
2022-10-11T21:36:16.114Z,97343.59
2022-10-11T21:38:42.943Z,97273.13
2022-10-11T21:41:16.782Z,97141.28
2022-10-11T21:43:43.491Z,97085.25
2022-10-11T21:46:10.688Z,97301.09
2022-10-11T21:48:37.400Z,97210.75
2022-10-11T21:51:04.389Z,97137.75
2022-10-11T21:53:31.182Z,97311.47
2022-10-11T21:55:58.702Z,97298.00
2022-10-11T21:58:25.478Z,97189.88
2022-10-11T22:00:53.163Z,97293.25
2022-10-11T22:03:19.884Z,97046.03
2022-10-11T22:05:46.629Z,97093.16
2022-10-11T22:08:13.778Z,97096.03
2022-10-11T22:10:44.158Z,96976.25
2022-10-11T22:13:11.136Z,97174.34
2022-10-11T22:15:37.813Z,97097.75
2022-10-11T22:18:04.652Z,97275.25
2022-10-11T22:20:32.482Z,97093.63
2022-10-11T22:22:59.148Z,97320.53
2022-10-11T22:25:25.844Z,97113.03
2022-10-11T22:27:52.479Z,97338.25
2022-10-11T22:30:19.063Z,97339.25
2022-10-11T22:32:45.759Z,97164.25
2022-10-11T22:35:12.408Z,97245.50
2022-10-11T22:37:38.996Z,97150.69
2022-10-11T22:40:06.099Z,97217.00
2022-10-11T22:42:32.812Z,97202.09
2022-10-11T22:44:59.945Z,97164.88
2022-10-11T22:47:26.861Z,97182.78
2022-10-11T22:49:53.556Z,97191.78
2022-10-11T22:52:20.214Z,97045.16
2022-10-11T22:54:46.878Z,97086.50
2022-10-11T22:57:13.458Z,97282.31
2022-10-11T22:59:40.072Z,97170.06
2022-10-11T23:02:06.729Z,97271.09
2022-10-11T23:04:33.414Z,97161.78
2022-10-11T23:07:04.009Z,97315.41
2022-10-11T23:09:31.897Z,97386.97
2022-10-11T23:11:59.076Z,97174.09
2022-10-11T23:14:25.693Z,97241.78
2022-10-11T23:16:52.393Z,97164.28
2022-10-11T23:19:19.148Z,97263.44
2022-10-11T23:21:45.787Z,97427.78
2022-10-11T23:24:12.523Z,97266.81
2022-10-11T23:26:39.153Z,97162.59
2022-10-11T23:29:05.847Z,97289.47
2022-10-11T23:32:35.569Z,97437.88
2022-10-11T23:35:02.289Z,97324.50
2022-10-11T23:37:28.897Z,97222.88
2022-10-11T23:40:27.382Z,97443.31
2022-10-11T23:42:53.951Z,97119.91
2022-10-11T23:45:20.547Z,97068.03
2022-10-11T23:47:47.155Z,97294.78
2022-10-11T23:50:13.720Z,97320.81
2022-10-11T23:52:40.315Z,97213.69
2022-10-11T23:55:07.198Z,97172.38
2022-10-11T23:57:34.085Z,97472.28
